Historique des stations

Station météo de Bellegarde

Altitude de la station : 121 m







Données météorologiques pour le 06/10/2022
Date
Heure
Températures Humidité Point de rosée Vitesse
du vent
Direction Rafales Windchill Pression Pluviométrie
Cumul
Date
Heure
Températures Humidité Point de rosée Vitesse
du vent
Direction Rafales Windchill Pression Pluviométrie
Cumul
06/10/2022 10:1614.1 °C80 %10.7 °C2 km/hNNE5 km/h14.11032 hPa0.0 mm
06/10/2022 10:1113.9 °C79 %10.4 °C2 km/hN3 km/h13.91032 hPa0.0 mm
06/10/2022 10:0114.1 °C81 %10.8 °C-N3 km/h14.11032 hPa0.0 mm
06/10/2022 09:5613.8 °C83 %10.9 °C-NW3 km/h13.81032 hPa0.0 mm
06/10/2022 09:4612.9 °C86 %10.7 °C-3 km/h12.91031 hPa0.0 mm
06/10/2022 09:4112.6 °C90 %11.0 °C3 km/hONO3 km/h12.61031 hPa0.0 mm
06/10/2022 09:3111.5 °C92 %10.2 °C-ONO3 km/h11.51031 hPa0.0 mm
06/10/2022 09:2611.1 °C91 %9.6 °C-ONO2 km/h11.11031 hPa0.0 mm
06/10/2022 09:1610.5 °C92 %9.3 °C-ONO3 km/h10.51031 hPa0.0 mm
06/10/2022 09:1110.2 °C92 %8.9 °C-ONO2 km/h10.21031 hPa0.0 mm
06/10/2022 09:019.3 °C92 %8.1 °C---9.31031 hPa0.0 mm
06/10/2022 08:568.9 °C92 %7.7 °C-ONO2 km/h8.91031 hPa0.0 mm
06/10/2022 08:468.7 °C91 %7.3 °C---8.71031 hPa0.0 mm
06/10/2022 08:418.7 °C91 %7.3 °C---8.71031 hPa0.0 mm
06/10/2022 08:318.7 °C91 %7.3 °C---8.71031 hPa0.0 mm
06/10/2022 08:168.8 °C90 %7.3 °C---8.81031 hPa0.0 mm
06/10/2022 08:118.9 °C90 %7.4 °C-ONO2 km/h8.91031 hPa0.0 mm
06/10/2022 08:019.1 °C90 %7.6 °C---9.11031 hPa0.0 mm
06/10/2022 07:569.2 °C90 %7.6 °C-ONO2 km/h9.21031 hPa0.0 mm
06/10/2022 07:469.3 °C90 %7.7 °C2 km/hONO3 km/h9.31031 hPa0.0 mm
06/10/2022 07:419.4 °C90 %7.8 °C2 km/hONO3 km/h9.41030 hPa0.0 mm
06/10/2022 07:319.6 °C89 %7.9 °C2 km/hO2 km/h9.61030 hPa0.0 mm
06/10/2022 07:269.7 °C89 %8.0 °C2 km/hO2 km/h9.71030 hPa0.0 mm
06/10/2022 07:169.9 °C89 %8.2 °C---9.91030 hPa0.0 mm
06/10/2022 07:119.9 °C89 %8.2 °C---9.91030 hPa0.0 mm
06/10/2022 07:0110.2 °C88 %8.3 °C-O3 km/h10.21030 hPa0.0 mm
06/10/2022 06:5610.3 °C88 %8.4 °C-ONO3 km/h10.31030 hPa0.0 mm
06/10/2022 06:4610.5 °C88 %8.6 °C2 km/hONO3 km/h10.51030 hPa0.0 mm
06/10/2022 06:4110.6 °C87 %8.5 °C2 km/hONO3 km/h10.61030 hPa0.0 mm
06/10/2022 06:3110.8 °C87 %8.8 °C2 km/hONO2 km/h10.81030 hPa0.0 mm
06/10/2022 06:2610.9 °C86 %8.7 °C2 km/hONO2 km/h10.91030 hPa0.0 mm
06/10/2022 06:1611.2 °C85 %8.7 °C---11.21030 hPa0.0 mm
06/10/2022 06:1111.3 °C85 %8.9 °C-ONO2 km/h11.31030 hPa0.0 mm
06/10/2022 06:0111.6 °C84 %8.9 °C-ONO2 km/h11.61030 hPa0.0 mm
06/10/2022 05:5611.7 °C84 %9.1 °C-ONO2 km/h11.71030 hPa0.0 mm
06/10/2022 05:4611.9 °C84 %9.3 °C2 km/hNNO3 km/h11.91029 hPa0.0 mm
06/10/2022 05:4112.0 °C83 %9.2 °C-NNO3 km/h12.01029 hPa0.0 mm
06/10/2022 05:3112.2 °C83 %9.4 °C2 km/hNNO3 km/h12.21029 hPa0.0 mm
06/10/2022 05:2612.3 °C83 %9.5 °C-NW3 km/h12.31029 hPa0.0 mm
06/10/2022 05:1612.5 °C82 %9.5 °C2 km/hNNO5 km/h12.51029 hPa0.0 mm
06/10/2022 05:1112.6 °C82 %9.6 °C3 km/hNW5 km/h12.61029 hPa0.0 mm
06/10/2022 05:0112.8 °C81 %9.6 °C2 km/hNO6 km/h12.81029 hPa0.0 mm
06/10/2022 04:5612.8 °C81 %9.7 °C-NW6 km/h12.81029 hPa0.0 mm
06/10/2022 04:4613.0 °C80 %9.6 °C3 km/hNNO6 km/h13.01029 hPa0.0 mm
06/10/2022 04:4113.1 °C80 %9.7 °C2 km/hNW5 km/h13.11029 hPa0.0 mm
06/10/2022 04:3113.3 °C79 %9.8 °C3 km/h6 km/h13.31029 hPa0.0 mm
06/10/2022 04:2613.4 °C79 %9.9 °C3 km/hNNO5 km/h13.41029 hPa0.0 mm
06/10/2022 04:1613.7 °C77 %9.7 °C3 km/hN6 km/h13.71028 hPa0.0 mm
06/10/2022 04:1113.8 °C77 %9.8 °C3 km/hNNO13 km/h13.81028 hPa0.0 mm
06/10/2022 04:0113.9 °C77 %9.9 °C6 km/h13 km/h13.91028 hPa0.0 mm
06/10/2022 03:5614.0 °C77 %10.0 °C5 km/hN13 km/h14.01028 hPa0.0 mm
06/10/2022 03:4614.1 °C77 %10.1 °C6 km/hNNE13 km/h14.11028 hPa0.0 mm
06/10/2022 03:4114.2 °C77 %10.2 °C10 km/hNW13 km/h14.21028 hPa0.0 mm
06/10/2022 03:3114.4 °C77 %10.5 °C6 km/hN16 km/h14.41028 hPa0.0 mm
06/10/2022 03:2614.6 °C77 %10.6 °C6 km/hNNO16 km/h14.61028 hPa0.0 mm
06/10/2022 03:1614.7 °C79 %11.1 °C6 km/hNO15 km/h14.71028 hPa0.0 mm
06/10/2022 03:1114.7 °C80 %11.3 °C3 km/hNNO15 km/h14.71028 hPa0.0 mm
06/10/2022 03:0114.7 °C82 %11.7 °C3 km/hNO11 km/h14.71028 hPa0.0 mm
06/10/2022 02:5614.8 °C82 %11.7 °C2 km/hNW11 km/h14.81028 hPa0.0 mm
06/10/2022 02:4614.8 °C82 %11.8 °C3 km/hNO8 km/h14.81028 hPa0.0 mm
06/10/2022 02:4114.9 °C82 %11.8 °C3 km/hONO5 km/h14.91028 hPa0.0 mm
06/10/2022 02:3114.9 °C81 %11.7 °C3 km/hNO6 km/h14.91028 hPa0.0 mm
06/10/2022 02:2614.9 °C81 %11.7 °C2 km/hONO8 km/h14.91028 hPa0.0 mm
06/10/2022 02:1614.8 °C81 %11.6 °C3 km/hNNO6 km/h14.81027 hPa0.0 mm
06/10/2022 02:1114.9 °C81 %11.7 °C-NNO5 km/h14.91027 hPa0.0 mm
06/10/2022 02:0115.0 °C81 %11.8 °C3 km/h--15.01027 hPa0.0 mm
06/10/2022 01:5615.0 °C80 %11.6 °C3 km/hONO6 km/h15.01027 hPa0.0 mm
06/10/2022 01:4615.1 °C80 %11.7 °C3 km/hONO8 km/h15.11027 hPa0.0 mm
06/10/2022 01:4115.2 °C80 %11.7 °C5 km/hONO8 km/h15.21027 hPa0.0 mm
06/10/2022 01:3115.2 °C81 %12.0 °C3 km/hONO5 km/h15.21027 hPa0.0 mm
06/10/2022 01:2615.2 °C81 %12.0 °C2 km/hONO5 km/h15.21027 hPa0.0 mm
06/10/2022 01:1615.2 °C82 %12.2 °C5 km/hNO8 km/h15.21027 hPa0.0 mm
06/10/2022 01:1115.2 °C82 %12.2 °C2 km/hNW8 km/h15.21027 hPa0.0 mm
06/10/2022 01:0115.3 °C83 %12.4 °C3 km/hONO6 km/h15.31027 hPa0.0 mm
06/10/2022 00:5615.3 °C83 %12.4 °C2 km/hNNO6 km/h15.31027 hPa0.0 mm
06/10/2022 00:4615.3 °C83 %12.5 °C3 km/hNNO8 km/h15.31026 hPa0.0 mm
06/10/2022 00:4115.4 °C82 %12.3 °C2 km/hNNO8 km/h15.41026 hPa0.0 mm
06/10/2022 00:3115.4 °C82 %12.4 °C6 km/hNNO11 km/h15.41026 hPa0.0 mm
06/10/2022 00:2615.4 °C81 %12.2 °C6 km/hNNO18 km/h15.41026 hPa0.0 mm
06/10/2022 00:1615.6 °C81 %12.4 °C16 km/hNNO19 km/h15.21026 hPa0.0 mm
06/10/2022 00:0115.8 °C82 %12.7 °C8 km/hNNO18 km/h15.81026 hPa0.0 mm


Minima :

Température : 8.7 °C
Humidité : 77 %
Point de rosée : 7.3 °C
Vent moyen : 2 km/h
Windchill : 8.7
Pression atm. : 1026 hPa
Maxima :

Température : 15.8 °C
Humidité : 92 %
Point de rosée : 12.7 °C
Vent moyen : 16 km/h
Windchill : 15.8
Pression atm. : 1032 hPa
Rafales max : 19 km/h
Cumul de pluie sur 24H : 0 mm

Bellegarde est une commune du département Loiret (45).
La station météorologique du réseau de l'association la plus proche de Bellegarde est celle de Saint-Firmin-des-Bois
Site du propriétaire de la station : meteo-grognon.com



Icône Facebook Association Météo Centre Icône Twitter Association Météo Centre Icône Chaîne Youtube Association Météo Centre Icône contact Association Météo Centre Icône Insta Association Météo Centre